sensor_id;sensor_type;location;lat;lon;timestamp;P1;durP1;ratioP1;P2;durP2;ratioP2
60233;SDS011;49514;43.538;-5.708;2023-11-18T00:00:05;26.83;;;10.82;;
60233;SDS011;49514;43.538;-5.708;2023-11-18T00:02:38;25.83;;;9.80;;
60233;SDS011;49514;43.538;-5.708;2023-11-18T00:05:05;24.63;;;9.27;;
60233;SDS011;49514;43.538;-5.708;2023-11-18T00:07:33;21.25;;;8.38;;
60233;SDS011;49514;43.538;-5.708;2023-11-18T00:09:59;23.80;;;8.20;;
60233;SDS011;49514;43.538;-5.708;2023-11-18T00:12:26;23.45;;;7.82;;
60233;SDS011;49514;43.538;-5.708;2023-11-18T00:14:53;27.50;;;8.13;;
60233;SDS011;49514;43.538;-5.708;2023-11-18T00:17:19;32.88;;;8.70;;
60233;SDS011;49514;43.538;-5.708;2023-11-18T00:19:46;29.60;;;8.18;;
60233;SDS011;49514;43.538;-5.708;2023-11-18T00:22:13;31.38;;;8.20;;
60233;SDS011;49514;43.538;-5.708;2023-11-18T00:24:39;27.33;;;8.55;;
60233;SDS011;49514;43.538;-5.708;2023-11-18T00:27:06;23.60;;;8.88;;
60233;SDS011;49514;43.538;-5.708;2023-11-18T00:29:33;28.23;;;9.27;;
60233;SDS011;49514;43.538;-5.708;2023-11-18T00:32:00;21.95;;;9.30;;
60233;SDS011;49514;43.538;-5.708;2023-11-18T00:34:28;33.05;;;10.93;;
60233;SDS011;49514;43.538;-5.708;2023-11-18T00:36:55;32.17;;;12.05;;
60233;SDS011;49514;43.538;-5.708;2023-11-18T00:39:27;25.00;;;10.77;;
60233;SDS011;49514;43.538;-5.708;2023-11-18T00:41:54;31.02;;;11.73;;
60233;SDS011;49514;43.538;-5.708;2023-11-18T05:00:46;9.20;;;3.72;;
60233;SDS011;49514;43.538;-5.708;2023-11-18T05:03:14;10.38;;;4.10;;
60233;SDS011;49514;43.538;-5.708;2023-11-18T05:05:41;11.60;;;3.90;;
60233;SDS011;49514;43.538;-5.708;2023-11-18T05:08:17;11.27;;;4.27;;
60233;SDS011;49514;43.538;-5.708;2023-11-18T05:10:47;13.70;;;4.32;;
60233;SDS011;49514;43.538;-5.708;2023-11-18T05:13:14;8.98;;;3.83;;
60233;SDS011;49514;43.538;-5.708;2023-11-18T05:15:45;12.65;;;3.90;;
60233;SDS011;49514;43.538;-5.708;2023-11-18T05:18:12;9.77;;;3.80;;
60233;SDS011;49514;43.538;-5.708;2023-11-18T05:20:42;12.20;;;4.07;;
60233;SDS011;49514;43.538;-5.708;2023-11-18T05:23:10;9.32;;;3.83;;
60233;SDS011;49514;43.538;-5.708;2023-11-18T05:25:42;14.40;;;4.68;;
60233;SDS011;49514;43.538;-5.708;2023-11-18T05:28:09;14.90;;;5.00;;
60233;SDS011;49514;43.538;-5.708;2023-11-18T05:30:36;15.48;;;5.18;;
60233;SDS011;49514;43.538;-5.708;2023-11-18T05:33:03;17.93;;;6.40;;
60233;SDS011;49514;43.538;-5.708;2023-11-18T05:35:32;17.85;;;6.38;;
60233;SDS011;49514;43.538;-5.708;2023-11-18T05:37:59;23.27;;;8.68;;
60233;SDS011;49514;43.538;-5.708;2023-11-18T05:40:26;18.83;;;7.65;;
60233;SDS011;49514;43.538;-5.708;2023-11-18T05:42:54;16.73;;;6.88;;
60233;SDS011;49514;43.538;-5.708;2023-11-18T05:45:21;15.27;;;6.00;;
60233;SDS011;49514;43.538;-5.708;2023-11-18T05:47:54;20.80;;;7.80;;
60233;SDS011;49514;43.538;-5.708;2023-11-18T05:50:21;21.67;;;7.00;;
60233;SDS011;49514;43.538;-5.708;2023-11-18T05:52:53;12.40;;;5.30;;
60233;SDS011;49514;43.538;-5.708;2023-11-18T05:55:21;14.75;;;5.50;;
60233;SDS011;49514;43.538;-5.708;2023-11-18T05:57:47;12.70;;;5.28;;
60233;SDS011;49514;43.538;-5.708;2023-11-18T06:00:14;14.75;;;6.38;;
60233;SDS011;49514;43.538;-5.708;2023-11-18T06:02:43;13.10;;;4.90;;
60233;SDS011;49514;43.538;-5.708;2023-11-18T06:05:10;15.60;;;6.63;;
60233;SDS011;49514;43.538;-5.708;2023-11-18T06:07:38;18.35;;;7.13;;
60233;SDS011;49514;43.538;-5.708;2023-11-18T06:10:13;18.97;;;7.80;;
60233;SDS011;49514;43.538;-5.708;2023-11-18T06:12:40;22.93;;;8.40;;
60233;SDS011;49514;43.538;-5.708;2023-11-18T06:15:07;32.33;;;10.32;;
60233;SDS011;49514;43.538;-5.708;2023-11-18T06:17:35;16.67;;;6.57;;
60233;SDS011;49514;43.538;-5.708;2023-11-18T06:20:02;15.55;;;5.78;;
60233;SDS011;49514;43.538;-5.708;2023-11-18T06:22:32;13.85;;;6.03;;
60233;SDS011;49514;43.538;-5.708;2023-11-18T06:24:59;18.05;;;6.47;;
60233;SDS011;49514;43.538;-5.708;2023-11-18T06:27:25;14.20;;;6.22;;
60233;SDS011;49514;43.538;-5.708;2023-11-18T06:29:53;15.02;;;5.18;;
60233;SDS011;49514;43.538;-5.708;2023-11-18T06:32:20;15.68;;;6.05;;
60233;SDS011;49514;43.538;-5.708;2023-11-18T06:34:47;10.77;;;4.80;;
60233;SDS011;49514;43.538;-5.708;2023-11-18T06:37:15;13.82;;;4.32;;
60233;SDS011;49514;43.538;-5.708;2023-11-18T06:39:42;12.98;;;4.45;;
60233;SDS011;49514;43.538;-5.708;2023-11-18T06:42:11;11.38;;;3.90;;
60233;SDS011;49514;43.538;-5.708;2023-11-18T06:44:38;10.47;;;4.13;;
60233;SDS011;49514;43.538;-5.708;2023-11-18T06:47:05;9.95;;;3.80;;
60233;SDS011;49514;43.538;-5.708;2023-11-18T06:49:32;9.43;;;3.63;;
60233;SDS011;49514;43.538;-5.708;2023-11-18T06:52:02;9.98;;;3.70;;
60233;SDS011;49514;43.538;-5.708;2023-11-18T06:54:30;13.10;;;4.40;;
60233;SDS011;49514;43.538;-5.708;2023-11-18T06:56:59;9.40;;;3.90;;
60233;SDS011;49514;43.538;-5.708;2023-11-18T06:59:25;14.27;;;4.20;;
60233;SDS011;49514;43.538;-5.708;2023-11-18T07:01:52;11.07;;;3.47;;
60233;SDS011;49514;43.538;-5.708;2023-11-18T07:04:19;8.50;;;3.72;;
60233;SDS011;49514;43.538;-5.708;2023-11-18T07:06:46;11.95;;;4.25;;
60233;SDS011;49514;43.538;-5.708;2023-11-18T07:09:12;16.23;;;4.80;;
60233;SDS011;49514;43.538;-5.708;2023-11-18T07:11:43;16.25;;;5.20;;
60233;SDS011;49514;43.538;-5.708;2023-11-18T07:14:10;17.97;;;4.73;;
60233;SDS011;49514;43.538;-5.708;2023-11-18T07:16:38;14.80;;;5.25;;
60233;SDS011;49514;43.538;-5.708;2023-11-18T07:19:05;17.65;;;5.68;;
60233;SDS011;49514;43.538;-5.708;2023-11-18T07:21:32;21.00;;;6.70;;
60233;SDS011;49514;43.538;-5.708;2023-11-18T07:24:00;18.40;;;6.18;;
60233;SDS011;49514;43.538;-5.708;2023-11-18T07:26:28;21.80;;;5.88;;
60233;SDS011;49514;43.538;-5.708;2023-11-18T07:28:59;17.55;;;6.50;;
60233;SDS011;49514;43.538;-5.708;2023-11-18T07:31:26;21.40;;;7.45;;
60233;SDS011;49514;43.538;-5.708;2023-11-18T07:33:54;23.05;;;7.72;;
60233;SDS011;49514;43.538;-5.708;2023-11-18T07:36:22;16.87;;;5.63;;
60233;SDS011;49514;43.538;-5.708;2023-11-18T07:38:51;16.65;;;6.07;;
60233;SDS011;49514;43.538;-5.708;2023-11-18T07:41:18;22.13;;;6.82;;
60233;SDS011;49514;43.538;-5.708;2023-11-18T07:43:51;17.33;;;5.50;;
60233;SDS011;49514;43.538;-5.708;2023-11-18T07:46:22;24.97;;;6.73;;
60233;SDS011;49514;43.538;-5.708;2023-11-18T07:48:52;31.50;;;8.80;;
60233;SDS011;49514;43.538;-5.708;2023-11-18T07:51:19;29.10;;;8.60;;
60233;SDS011;49514;43.538;-5.708;2023-11-18T07:53:49;30.75;;;8.88;;
60233;SDS011;49514;43.538;-5.708;2023-11-18T07:56:16;31.07;;;10.83;;
60233;SDS011;49514;43.538;-5.708;2023-11-18T07:58:43;33.90;;;10.67;;
60233;SDS011;49514;43.538;-5.708;2023-11-18T08:01:13;34.43;;;11.23;;
60233;SDS011;49514;43.538;-5.708;2023-11-18T08:03:42;32.27;;;11.20;;
60233;SDS011;49514;43.538;-5.708;2023-11-18T08:06:12;37.22;;;12.50;;
60233;SDS011;49514;43.538;-5.708;2023-11-18T08:08:39;33.05;;;12.45;;
60233;SDS011;49514;43.538;-5.708;2023-11-18T08:11:07;50.30;;;16.80;;
60233;SDS011;49514;43.538;-5.708;2023-11-18T08:13:36;53.38;;;17.58;;
60233;SDS011;49514;43.538;-5.708;2023-11-18T08:16:03;46.25;;;17.75;;
60233;SDS011;49514;43.538;-5.708;2023-11-18T08:18:30;41.55;;;15.88;;
60233;SDS011;49514;43.538;-5.708;2023-11-18T08:20:57;33.15;;;14.60;;
60233;SDS011;49514;43.538;-5.708;2023-11-18T08:23:26;26.30;;;11.82;;
60233;SDS011;49514;43.538;-5.708;2023-11-18T08:25:54;23.43;;;11.33;;
60233;SDS011;49514;43.538;-5.708;2023-11-18T08:28:22;26.83;;;11.47;;
60233;SDS011;49514;43.538;-5.708;2023-11-18T08:30:49;23.50;;;10.43;;
60233;SDS011;49514;43.538;-5.708;2023-11-18T08:33:17;33.05;;;11.43;;
60233;SDS011;49514;43.538;-5.708;2023-11-18T08:35:44;29.50;;;12.57;;
60233;SDS011;49514;43.538;-5.708;2023-11-18T08:38:12;29.45;;;12.63;;
60233;SDS011;49514;43.538;-5.708;2023-11-18T08:40:39;29.87;;;12.30;;
60233;SDS011;49514;43.538;-5.708;2023-11-18T08:43:06;34.27;;;13.43;;
60233;SDS011;49514;43.538;-5.708;2023-11-18T08:45:33;30.00;;;14.27;;
60233;SDS011;49514;43.538;-5.708;2023-11-18T08:48:01;31.58;;;13.38;;
60233;SDS011;49514;43.538;-5.708;2023-11-18T08:50:33;27.85;;;12.70;;
60233;SDS011;49514;43.538;-5.708;2023-11-18T08:53:01;24.33;;;10.40;;
60233;SDS011;49514;43.538;-5.708;2023-11-18T08:55:32;23.20;;;6.97;;
60233;SDS011;49514;43.538;-5.708;2023-11-18T08:58:06;22.47;;;6.47;;
60233;SDS011;49514;43.538;-5.708;2023-11-18T09:00:46;18.17;;;7.00;;
60233;SDS011;49514;43.538;-5.708;2023-11-18T09:03:21;19.13;;;6.40;;
60233;SDS011;49514;43.538;-5.708;2023-11-18T09:06:01;18.87;;;6.67;;
60233;SDS011;49514;43.538;-5.708;2023-11-18T09:08:36;14.93;;;5.22;;
60233;SDS011;49514;43.538;-5.708;2023-11-18T09:11:08;11.10;;;3.73;;
60233;SDS011;49514;43.538;-5.708;2023-11-18T09:13:37;10.10;;;3.63;;
60233;SDS011;49514;43.538;-5.708;2023-11-18T09:16:05;12.27;;;3.17;;
60233;SDS011;49514;43.538;-5.708;2023-11-18T09:18:36;6.60;;;2.90;;
60233;SDS011;49514;43.538;-5.708;2023-11-18T09:21:05;9.60;;;3.30;;
60233;SDS011;49514;43.538;-5.708;2023-11-18T09:23:33;25.58;;;5.47;;
60233;SDS011;49514;43.538;-5.708;2023-11-18T09:26:01;23.48;;;5.75;;
60233;SDS011;49514;43.538;-5.708;2023-11-18T09:28:34;31.40;;;6.95;;
60233;SDS011;49514;43.538;-5.708;2023-11-18T09:31:01;28.63;;;7.32;;
60233;SDS011;49514;43.538;-5.708;2023-11-18T09:33:30;21.80;;;6.85;;
60233;SDS011;49514;43.538;-5.708;2023-11-18T09:36:04;20.83;;;6.28;;
60233;SDS011;49514;43.538;-5.708;2023-11-18T09:38:38;21.52;;;6.85;;
60233;SDS011;49514;43.538;-5.708;2023-11-18T09:41:09;18.65;;;5.05;;
60233;SDS011;49514;43.538;-5.708;2023-11-18T09:43:43;13.93;;;3.85;;
60233;SDS011;49514;43.538;-5.708;2023-11-18T09:46:12;12.32;;;4.70;;
60233;SDS011;49514;43.538;-5.708;2023-11-18T09:48:53;20.07;;;7.27;;
60233;SDS011;49514;43.538;-5.708;2023-11-18T09:51:42;24.27;;;8.85;;
60233;SDS011;49514;43.538;-5.708;2023-11-18T10:02:22;8.18;;;2.92;;
60233;SDS011;49514;43.538;-5.708;2023-11-18T10:04:50;12.70;;;3.87;;
60233;SDS011;49514;43.538;-5.708;2023-11-18T10:07:26;15.63;;;4.30;;
60233;SDS011;49514;43.538;-5.708;2023-11-18T10:09:58;10.70;;;3.17;;
60233;SDS011;49514;43.538;-5.708;2023-11-18T10:12:25;6.45;;;2.85;;
60233;SDS011;49514;43.538;-5.708;2023-11-18T10:14:52;8.38;;;2.72;;
60233;SDS011;49514;43.538;-5.708;2023-11-18T10:17:20;6.85;;;2.40;;
60233;SDS011;49514;43.538;-5.708;2023-11-18T10:19:52;6.97;;;2.47;;
60233;SDS011;49514;43.538;-5.708;2023-11-18T10:22:26;6.43;;;2.27;;
60233;SDS011;49514;43.538;-5.708;2023-11-18T10:24:55;6.47;;;2.30;;
60233;SDS011;49514;43.538;-5.708;2023-11-18T10:27:24;5.35;;;2.38;;
60233;SDS011;49514;43.538;-5.708;2023-11-18T10:29:55;5.72;;;2.40;;
60233;SDS011;49514;43.538;-5.708;2023-11-18T10:32:23;4.28;;;2.22;;
60233;SDS011;49514;43.538;-5.708;2023-11-18T10:34:56;10.30;;;3.00;;
60233;SDS011;49514;43.538;-5.708;2023-11-18T10:37:27;8.63;;;3.00;;
60233;SDS011;49514;43.538;-5.708;2023-11-18T10:39:56;10.18;;;3.05;;
60233;SDS011;49514;43.538;-5.708;2023-11-18T10:42:30;8.68;;;2.97;;
60233;SDS011;49514;43.538;-5.708;2023-11-18T10:44:58;7.72;;;2.70;;
60233;SDS011;49514;43.538;-5.708;2023-11-18T10:47:34;7.53;;;2.60;;
60233;SDS011;49514;43.538;-5.708;2023-11-18T10:50:07;7.35;;;3.40;;
60233;SDS011;49514;43.538;-5.708;2023-11-18T10:52:35;6.22;;;2.80;;
60233;SDS011;49514;43.538;-5.708;2023-11-18T10:55:03;9.07;;;3.10;;
60233;SDS011;49514;43.538;-5.708;2023-11-18T10:57:37;7.00;;;3.23;;
60233;SDS011;49514;43.538;-5.708;2023-11-18T11:00:06;8.43;;;3.53;;
60233;SDS011;49514;43.538;-5.708;2023-11-18T11:02:39;8.00;;;3.75;;
60233;SDS011;49514;43.538;-5.708;2023-11-18T11:05:09;9.32;;;4.13;;
60233;SDS011;49514;43.538;-5.708;2023-11-18T11:07:42;9.73;;;4.27;;
60233;SDS011;49514;43.538;-5.708;2023-11-18T11:10:10;8.50;;;3.80;;
60233;SDS011;49514;43.538;-5.708;2023-11-18T11:12:43;6.28;;;3.70;;
60233;SDS011;49514;43.538;-5.708;2023-11-18T11:15:23;7.85;;;3.72;;
60233;SDS011;49514;43.538;-5.708;2023-11-18T11:17:56;7.50;;;4.30;;
60233;SDS011;49514;43.538;-5.708;2023-11-18T11:32:34;7.57;;;4.60;;
60233;SDS011;49514;43.538;-5.708;2023-11-18T11:35:07;8.68;;;5.00;;
60233;SDS011;49514;43.538;-5.708;2023-11-18T11:37:44;10.80;;;4.90;;
60233;SDS011;49514;43.538;-5.708;2023-11-18T11:40:13;6.93;;;4.18;;
60233;SDS011;49514;43.538;-5.708;2023-11-18T11:42:48;6.32;;;3.70;;
60233;SDS011;49514;43.538;-5.708;2023-11-18T11:45:23;6.10;;;3.47;;
60233;SDS011;49514;43.538;-5.708;2023-11-18T11:47:55;7.32;;;3.53;;
60233;SDS011;49514;43.538;-5.708;2023-11-18T11:53:52;6.35;;;3.65;;
60233;SDS011;49514;43.538;-5.708;2023-11-18T11:56:43;5.68;;;3.30;;
60233;SDS011;49514;43.538;-5.708;2023-11-18T11:59:15;6.50;;;3.90;;
60233;SDS011;49514;43.538;-5.708;2023-11-18T12:01:42;5.80;;;2.93;;
60233;SDS011;49514;43.538;-5.708;2023-11-18T12:04:15;4.18;;;2.60;;
60233;SDS011;49514;43.538;-5.708;2023-11-18T12:06:53;6.60;;;2.70;;
60233;SDS011;49514;43.538;-5.708;2023-11-18T12:09:22;4.60;;;2.60;;
60233;SDS011;49514;43.538;-5.708;2023-11-18T12:11:58;5.30;;;3.13;;
60233;SDS011;49514;43.538;-5.708;2023-11-18T12:14:26;5.10;;;3.03;;
60233;SDS011;49514;43.538;-5.708;2023-11-18T12:17:00;7.30;;;3.70;;
60233;SDS011;49514;43.538;-5.708;2023-11-18T12:19:40;6.63;;;3.35;;
60233;SDS011;49514;43.538;-5.708;2023-11-18T12:22:20;5.25;;;2.88;;
60233;SDS011;49514;43.538;-5.708;2023-11-18T12:32:57;4.93;;;1.83;;
60233;SDS011;49514;43.538;-5.708;2023-11-18T12:35:27;3.72;;;1.80;;
60233;SDS011;49514;43.538;-5.708;2023-11-18T12:40:54;6.43;;;2.30;;
60233;SDS011;49514;43.538;-5.708;2023-11-18T12:49:07;7.23;;;2.23;;
60233;SDS011;49514;43.538;-5.708;2023-11-18T12:51:44;5.35;;;2.20;;
60233;SDS011;49514;43.538;-5.708;2023-11-18T12:54:12;4.88;;;2.25;;
60233;SDS011;49514;43.538;-5.708;2023-11-18T12:56:39;4.55;;;2.05;;
60233;SDS011;49514;43.538;-5.708;2023-11-18T12:59:10;7.28;;;2.00;;
60233;SDS011;49514;43.538;-5.708;2023-11-18T13:01:39;5.25;;;1.80;;
60233;SDS011;49514;43.538;-5.708;2023-11-18T13:04:07;6.57;;;1.80;;
60233;SDS011;49514;43.538;-5.708;2023-11-18T13:06:37;5.90;;;1.83;;
60233;SDS011;49514;43.538;-5.708;2023-11-18T13:09:04;4.50;;;1.80;;
60233;SDS011;49514;43.538;-5.708;2023-11-18T13:11:35;4.78;;;1.77;;
60233;SDS011;49514;43.538;-5.708;2023-11-18T13:14:04;5.95;;;1.80;;
60233;SDS011;49514;43.538;-5.708;2023-11-18T13:16:31;5.25;;;1.70;;
60233;SDS011;49514;43.538;-5.708;2023-11-18T13:18:58;3.67;;;1.65;;
60233;SDS011;49514;43.538;-5.708;2023-11-18T13:21:25;6.03;;;1.70;;
60233;SDS011;49514;43.538;-5.708;2023-11-18T13:23:55;5.18;;;1.80;;
60233;SDS011;49514;43.538;-5.708;2023-11-18T13:26:22;5.00;;;1.80;;
60233;SDS011;49514;43.538;-5.708;2023-11-18T13:28:50;4.03;;;1.70;;
60233;SDS011;49514;43.538;-5.708;2023-11-18T13:31:19;5.90;;;1.80;;
60233;SDS011;49514;43.538;-5.708;2023-11-18T13:33:46;4.33;;;1.70;;
60233;SDS011;49514;43.538;-5.708;2023-11-18T13:36:14;4.38;;;1.40;;
60233;SDS011;49514;43.538;-5.708;2023-11-18T13:38:41;5.93;;;1.60;;
60233;SDS011;49514;43.538;-5.708;2023-11-18T13:41:08;5.63;;;1.98;;
60233;SDS011;49514;43.538;-5.708;2023-11-18T13:43:42;4.55;;;1.77;;
60233;SDS011;49514;43.538;-5.708;2023-11-18T13:46:12;6.17;;;3.20;;
60233;SDS011;49514;43.538;-5.708;2023-11-18T13:48:40;6.47;;;2.30;;
60233;SDS011;49514;43.538;-5.708;2023-11-18T13:51:08;8.00;;;2.05;;
60233;SDS011;49514;43.538;-5.708;2023-11-18T13:53:42;5.70;;;2.28;;
60233;SDS011;49514;43.538;-5.708;2023-11-18T13:56:12;5.72;;;2.03;;
60233;SDS011;49514;43.538;-5.708;2023-11-18T13:58:44;5.18;;;1.90;;
60233;SDS011;49514;43.538;-5.708;2023-11-18T14:01:11;6.40;;;1.93;;
60233;SDS011;49514;43.538;-5.708;2023-11-18T14:03:39;6.25;;;1.85;;
60233;SDS011;49514;43.538;-5.708;2023-11-18T14:06:07;6.53;;;1.80;;
60233;SDS011;49514;43.538;-5.708;2023-11-18T14:08:36;4.80;;;1.77;;
60233;SDS011;49514;43.538;-5.708;2023-11-18T14:11:03;3.75;;;1.65;;
60233;SDS011;49514;43.538;-5.708;2023-11-18T14:13:31;4.47;;;1.70;;
60233;SDS011;49514;43.538;-5.708;2023-11-18T14:16:01;6.57;;;1.60;;
60233;SDS011;49514;43.538;-5.708;2023-11-18T14:18:28;4.35;;;1.58;;
60233;SDS011;49514;43.538;-5.708;2023-11-18T14:20:55;4.97;;;1.38;;
60233;SDS011;49514;43.538;-5.708;2023-11-18T14:23:23;5.45;;;1.63;;
60233;SDS011;49514;43.538;-5.708;2023-11-18T14:25:51;5.80;;;1.60;;
60233;SDS011;49514;43.538;-5.708;2023-11-18T14:28:17;3.90;;;1.30;;
60233;SDS011;49514;43.538;-5.708;2023-11-18T14:30:44;5.28;;;1.50;;
60233;SDS011;49514;43.538;-5.708;2023-11-18T14:33:11;3.08;;;1.40;;
60233;SDS011;49514;43.538;-5.708;2023-11-18T14:35:38;4.05;;;1.42;;
60233;SDS011;49514;43.538;-5.708;2023-11-18T14:38:06;3.35;;;1.15;;
60233;SDS011;49514;43.538;-5.708;2023-11-18T14:40:34;2.20;;;1.05;;
60233;SDS011;49514;43.538;-5.708;2023-11-18T14:43:01;3.53;;;1.20;;
60233;SDS011;49514;43.538;-5.708;2023-11-18T14:45:29;1.90;;;0.93;;
60233;SDS011;49514;43.538;-5.708;2023-11-18T14:47:55;2.17;;;0.90;;
60233;SDS011;49514;43.538;-5.708;2023-11-18T14:50:22;3.60;;;1.00;;
60233;SDS011;49514;43.538;-5.708;2023-11-18T14:52:50;4.63;;;1.48;;
60233;SDS011;49514;43.538;-5.708;2023-11-18T14:55:26;6.07;;;1.57;;
60233;SDS011;49514;43.538;-5.708;2023-11-18T14:57:54;3.70;;;1.20;;
60233;SDS011;49514;43.538;-5.708;2023-11-18T15:00:23;3.10;;;1.00;;
60233;SDS011;49514;43.538;-5.708;2023-11-18T15:02:57;3.27;;;1.30;;
60233;SDS011;49514;43.538;-5.708;2023-11-18T15:05:25;3.65;;;1.17;;
60233;SDS011;49514;43.538;-5.708;2023-11-18T15:07:53;4.32;;;1.35;;
60233;SDS011;49514;43.538;-5.708;2023-11-18T15:10:21;4.55;;;1.20;;
60233;SDS011;49514;43.538;-5.708;2023-11-18T15:12:58;3.72;;;1.50;;
60233;SDS011;49514;43.538;-5.708;2023-11-18T15:15:27;4.70;;;1.40;;
60233;SDS011;49514;43.538;-5.708;2023-11-18T15:18:00;5.00;;;1.30;;
60233;SDS011;49514;43.538;-5.708;2023-11-18T15:20:29;3.60;;;1.38;;
60233;SDS011;49514;43.538;-5.708;2023-11-18T15:22:56;3.10;;;1.20;;
60233;SDS011;49514;43.538;-5.708;2023-11-18T15:25:23;2.73;;;1.10;;
60233;SDS011;49514;43.538;-5.708;2023-11-18T15:27:50;3.07;;;1.20;;
60233;SDS011;49514;43.538;-5.708;2023-11-18T15:30:16;2.05;;;1.02;;
60233;SDS011;49514;43.538;-5.708;2023-11-18T15:32:45;5.07;;;1.13;;
60233;SDS011;49514;43.538;-5.708;2023-11-18T15:35:13;3.20;;;1.20;;
60233;SDS011;49514;43.538;-5.708;2023-11-18T15:37:42;2.58;;;1.10;;
60233;SDS011;49514;43.538;-5.708;2023-11-18T15:40:16;2.75;;;1.05;;
60233;SDS011;49514;43.538;-5.708;2023-11-18T15:42:51;3.27;;;1.20;;
60233;SDS011;49514;43.538;-5.708;2023-11-18T15:45:19;4.80;;;1.35;;
60233;SDS011;49514;43.538;-5.708;2023-11-18T15:47:47;6.10;;;1.70;;
60233;SDS011;49514;43.538;-5.708;2023-11-18T15:50:14;6.87;;;1.60;;
60233;SDS011;49514;43.538;-5.708;2023-11-18T15:52:42;4.90;;;1.90;;
60233;SDS011;49514;43.538;-5.708;2023-11-18T15:55:09;8.90;;;2.17;;
60233;SDS011;49514;43.538;-5.708;2023-11-18T15:57:40;6.53;;;1.92;;
60233;SDS011;49514;43.538;-5.708;2023-11-18T16:00:08;5.55;;;1.90;;
60233;SDS011;49514;43.538;-5.708;2023-11-18T16:10:09;11.27;;;2.40;;
60233;SDS011;49514;43.538;-5.708;2023-11-18T16:12:37;7.25;;;2.10;;
60233;SDS011;49514;43.538;-5.708;2023-11-18T16:15:04;6.18;;;2.28;;
60233;SDS011;49514;43.538;-5.708;2023-11-18T16:17:34;5.97;;;2.00;;
60233;SDS011;49514;43.538;-5.708;2023-11-18T16:20:02;7.68;;;2.33;;
60233;SDS011;49514;43.538;-5.708;2023-11-18T16:22:33;6.85;;;2.33;;
60233;SDS011;49514;43.538;-5.708;2023-11-18T16:25:01;8.95;;;2.20;;
60233;SDS011;49514;43.538;-5.708;2023-11-18T16:33:16;8.60;;;1.95;;
60233;SDS011;49514;43.538;-5.708;2023-11-18T16:35:45;10.00;;;2.38;;
60233;SDS011;49514;43.538;-5.708;2023-11-18T16:38:12;16.25;;;2.97;;
60233;SDS011;49514;43.538;-5.708;2023-11-18T16:40:39;13.57;;;2.60;;
60233;SDS011;49514;43.538;-5.708;2023-11-18T16:43:06;11.90;;;2.50;;
60233;SDS011;49514;43.538;-5.708;2023-11-18T16:45:32;12.48;;;2.65;;
60233;SDS011;49514;43.538;-5.708;2023-11-18T16:48:00;19.65;;;3.47;;
60233;SDS011;49514;43.538;-5.708;2023-11-18T16:50:28;14.77;;;4.30;;
60233;SDS011;49514;43.538;-5.708;2023-11-18T16:52:55;12.32;;;3.55;;
60233;SDS011;49514;43.538;-5.708;2023-11-18T16:55:22;8.40;;;3.03;;
60233;SDS011;49514;43.538;-5.708;2023-11-18T16:57:49;11.38;;;3.70;;
60233;SDS011;49514;43.538;-5.708;2023-11-18T17:00:15;9.98;;;3.45;;
60233;SDS011;49514;43.538;-5.708;2023-11-18T17:02:46;9.68;;;2.67;;
60233;SDS011;49514;43.538;-5.708;2023-11-18T17:05:16;8.95;;;2.15;;
60233;SDS011;49514;43.538;-5.708;2023-11-18T17:07:43;7.28;;;3.60;;
60233;SDS011;49514;43.538;-5.708;2023-11-18T17:10:10;7.22;;;2.20;;
60233;SDS011;49514;43.538;-5.708;2023-11-18T17:12:41;7.05;;;1.95;;
60233;SDS011;49514;43.538;-5.708;2023-11-18T17:15:09;8.80;;;1.95;;
60233;SDS011;49514;43.538;-5.708;2023-11-18T17:17:43;6.18;;;1.95;;
60233;SDS011;49514;43.538;-5.708;2023-11-18T17:20:11;5.35;;;1.83;;
60233;SDS011;49514;43.538;-5.708;2023-11-18T17:22:39;6.97;;;1.70;;
60233;SDS011;49514;43.538;-5.708;2023-11-18T17:25:08;4.47;;;1.50;;
60233;SDS011;49514;43.538;-5.708;2023-11-18T17:27:36;2.90;;;1.60;;
60233;SDS011;49514;43.538;-5.708;2023-11-18T17:30:03;5.18;;;1.67;;
60233;SDS011;49514;43.538;-5.708;2023-11-18T17:32:31;3.40;;;1.55;;
60233;SDS011;49514;43.538;-5.708;2023-11-18T17:34:58;8.48;;;1.80;;
60233;SDS011;49514;43.538;-5.708;2023-11-18T17:37:29;4.10;;;1.50;;
60233;SDS011;49514;43.538;-5.708;2023-11-18T17:39:55;10.35;;;2.25;;
60233;SDS011;49514;43.538;-5.708;2023-11-18T17:42:23;15.93;;;3.38;;
60233;SDS011;49514;43.538;-5.708;2023-11-18T17:44:50;15.38;;;2.63;;
60233;SDS011;49514;43.538;-5.708;2023-11-18T17:47:17;18.55;;;3.05;;
60233;SDS011;49514;43.538;-5.708;2023-11-18T17:49:44;16.98;;;3.47;;
60233;SDS011;49514;43.538;-5.708;2023-11-18T17:52:13;19.73;;;2.92;;
60233;SDS011;49514;43.538;-5.708;2023-11-18T17:54:40;17.98;;;3.03;;
60233;SDS011;49514;43.538;-5.708;2023-11-18T17:57:06;17.02;;;3.15;;
60233;SDS011;49514;43.538;-5.708;2023-11-18T17:59:33;9.93;;;2.20;;
60233;SDS011;49514;43.538;-5.708;2023-11-18T18:02:00;12.75;;;2.20;;
60233;SDS011;49514;43.538;-5.708;2023-11-18T18:04:27;12.05;;;2.88;;
60233;SDS011;49514;43.538;-5.708;2023-11-18T18:06:53;15.38;;;3.33;;
60233;SDS011;49514;43.538;-5.708;2023-11-18T18:09:21;18.70;;;3.30;;
60233;SDS011;49514;43.538;-5.708;2023-11-18T18:11:50;27.00;;;3.40;;
60233;SDS011;49514;43.538;-5.708;2023-11-18T18:14:17;17.65;;;4.38;;
60233;SDS011;49514;43.538;-5.708;2023-11-18T18:16:43;17.73;;;8.55;;
60233;SDS011;49514;43.538;-5.708;2023-11-18T18:19:10;25.42;;;10.52;;
60233;SDS011;49514;43.538;-5.708;2023-11-18T18:21:37;21.45;;;8.50;;
60233;SDS011;49514;43.538;-5.708;2023-11-18T18:24:03;22.40;;;7.82;;
60233;SDS011;49514;43.538;-5.708;2023-11-18T18:26:31;19.50;;;7.85;;
60233;SDS011;49514;43.538;-5.708;2023-11-18T18:28:58;19.25;;;7.07;;
60233;SDS011;49514;43.538;-5.708;2023-11-18T18:31:25;16.70;;;7.50;;
60233;SDS011;49514;43.538;-5.708;2023-11-18T18:33:52;16.13;;;7.75;;
60233;SDS011;49514;43.538;-5.708;2023-11-18T18:36:18;20.65;;;8.18;;
60233;SDS011;49514;43.538;-5.708;2023-11-18T18:38:46;20.83;;;8.88;;
60233;SDS011;49514;43.538;-5.708;2023-11-18T18:41:16;20.17;;;8.30;;
60233;SDS011;49514;43.538;-5.708;2023-11-18T18:43:43;19.67;;;7.15;;
60233;SDS011;49514;43.538;-5.708;2023-11-18T18:46:10;17.85;;;7.40;;
60233;SDS011;49514;43.538;-5.708;2023-11-18T18:48:37;14.23;;;6.78;;
60233;SDS011;49514;43.538;-5.708;2023-11-18T18:51:04;17.27;;;6.95;;
60233;SDS011;49514;43.538;-5.708;2023-11-18T18:53:31;19.75;;;7.07;;
60233;SDS011;49514;43.538;-5.708;2023-11-18T18:55:58;17.02;;;7.07;;
60233;SDS011;49514;43.538;-5.708;2023-11-18T18:58:25;11.25;;;6.57;;
60233;SDS011;49514;43.538;-5.708;2023-11-18T19:00:52;17.60;;;6.57;;
60233;SDS011;49514;43.538;-5.708;2023-11-18T19:03:19;17.20;;;7.10;;
60233;SDS011;49514;43.538;-5.708;2023-11-18T19:05:45;22.95;;;7.03;;
60233;SDS011;49514;43.538;-5.708;2023-11-18T19:08:12;18.50;;;7.20;;
60233;SDS011;49514;43.538;-5.708;2023-11-18T19:10:39;16.80;;;6.50;;
60233;SDS011;49514;43.538;-5.708;2023-11-18T19:13:05;20.42;;;6.93;;
60233;SDS011;49514;43.538;-5.708;2023-11-18T19:15:36;30.98;;;7.07;;
60233;SDS011;49514;43.538;-5.708;2023-11-18T19:18:03;33.45;;;7.55;;
60233;SDS011;49514;43.538;-5.708;2023-11-18T19:20:32;29.05;;;7.75;;
60233;SDS011;49514;43.538;-5.708;2023-11-18T19:22:58;22.17;;;6.80;;
60233;SDS011;49514;43.538;-5.708;2023-11-18T19:25:25;17.23;;;5.03;;
60233;SDS011;49514;43.538;-5.708;2023-11-18T19:27:53;15.55;;;5.10;;
60233;SDS011;49514;43.538;-5.708;2023-11-18T19:30:19;13.75;;;5.38;;
60233;SDS011;49514;43.538;-5.708;2023-11-18T19:32:46;15.73;;;5.18;;
60233;SDS011;49514;43.538;-5.708;2023-11-18T19:35:13;14.23;;;4.97;;
60233;SDS011;49514;43.538;-5.708;2023-11-18T19:37:40;15.98;;;5.25;;
60233;SDS011;49514;43.538;-5.708;2023-11-18T19:40:07;15.68;;;5.85;;
60233;SDS011;49514;43.538;-5.708;2023-11-18T19:42:37;27.48;;;6.05;;
60233;SDS011;49514;43.538;-5.708;2023-11-18T19:45:04;21.40;;;5.63;;